Página principal
METAR-TAF:

METAR-TAF

Aeroportos :

Guelmim, Marrocos

latitude: 29-01-00N, longitude: 10-04-04W, altura: 301 m

Observação actual do tempo

O boletim foi feito há 16 minutos, às 07:00 UTC
Vento 4 kt de este
Temperatura 10°C
Humidade 93%
Pressão 1018 hPa
Visibilidade: 3000 m
Encobertoa uma altura de 600 ft
neblina

METAR: GMAG 180700Z 08004KT 3000 BR OVC006 10/09 Q1018 BECMG 0200 FG

Hora: 07:16 (07:16 UTC)


TAF: em falta

Observações e previsões do tempo de mais de 4000 aeroportos (mensagens METAR e TAF).

As estações disponíveis são os pontos amarelos e vermelhos sobre o mapa.

Mova o rato sobre o mapa para ver o nome da estação.

Depois clique no ponto para visualizar as observações e previsões meteorológicas.

Para alterar o mapa : clique nos botões verdes com uma cruz preta para aumentar o zoom; no botão verde com uma pitada de zoom; ou nas setas verdes para mapas adjacentes.


METAR-TAF: